Time;durP1;ratioP1;P1;durP2;ratioP2;P2;SDS_P1;SDS_P2;PMS_P1;PMS_P2;Temp;Humidity;BMP_temperature;BMP_pressure;BME280_temperature;BME280_humidity;BME280_pressure;Samples;Min_cycle;Max_cycle;Signal;HPM_P1;HPM_P2
2021/06/13 00:02:05;;;;;;;5.28;2.10;;;;;;;16.07;57.48;100827.91;5064548;28;20109;-75
2021/06/13 00:04:32;;;;;;;10.32;2.05;;;;;;;16.27;57.07;100835.59;5064385;28;20032;-75
2021/06/13 00:07:00;;;;;;;6.50;2.30;;;;;;;16.32;56.92;100834.63;5057725;28;20102;-75
2021/06/13 00:09:27;;;;;;;7.03;2.10;;;;;;;16.35;56.74;100833.75;5064545;28;20052;-74
2021/06/13 00:11:54;;;;;;;5.20;2.00;;;;;;;16.52;56.06;100837.03;5079094;28;20127;-74
2021/06/13 00:14:22;;;;;;;4.25;1.77;;;;;;;16.49;56.20;100837.94;5045889;28;20044;-76
2021/06/13 00:16:49;;;;;;;5.88;2.38;;;;;;;16.27;56.87;100825.91;5060259;28;20040;-75
2021/06/13 00:19:17;;;;;;;5.43;2.03;;;;;;;16.59;55.97;100822.03;5065112;28;20418;-75
2021/06/13 00:21:45;;;;;;;2.35;1.70;;;;;;;16.58;56.06;100818.50;5061604;28;20056;-77
2021/06/13 00:24:12;;;;;;;5.38;2.50;;;;;;;16.56;56.22;100818.50;5062255;28;21009;-75
2021/06/13 00:26:40;;;;;;;8.32;2.13;;;;;;;16.30;57.04;100820.63;5072351;28;20113;-76
2021/06/13 00:29:08;;;;;;;5.78;2.13;;;;;;;16.26;57.61;100818.03;5074043;28;20055;-76
2021/06/13 00:31:35;;;;;;;3.78;1.70;;;;;;;16.05;58.44;100804.22;5059715;28;20048;-76
2021/06/13 00:34:03;;;;;;;4.40;2.00;;;;;;;15.76;59.47;100814.22;5082122;28;20123;-76
2021/06/13 00:36:30;;;;;;;4.25;1.92;;;;;;;16.11;58.58;100819.09;5069678;28;20051;-75
2021/06/13 00:38:58;;;;;;;5.90;1.70;;;;;;;15.60;59.67;100810.88;5061480;28;20071;-75
2021/06/13 00:41:25;;;;;;;12.48;2.95;;;;;;;15.90;59.24;100814.06;5064769;28;20048;-76
2021/06/13 00:43:51;;;;;;;5.13;1.67;;;;;;;16.20;58.39;100818.13;5047409;28;20097;-75
2021/06/13 00:46:19;;;;;;;6.32;2.17;;;;;;;16.01;58.68;100814.81;5067681;28;20158;-74
2021/06/13 00:48:46;;;;;;;6.90;2.45;;;;;;;16.24;58.22;100811.91;5063076;28;20040;-75
2021/06/13 00:51:13;;;;;;;5.68;1.63;;;;;;;15.97;58.71;100808.69;5080503;28;20073;-75
2021/06/13 00:53:40;;;;;;;7.05;1.75;;;;;;;16.02;58.83;100809.50;5057338;28;20048;-75
2021/06/13 00:56:07;;;;;;;5.50;2.10;;;;;;;15.90;58.88;100806.16;5065003;28;20047;-75
2021/06/13 00:58:34;;;;;;;4.57;2.05;;;;;;;16.16;58.13;100814.66;5059096;28;20060;-75
2021/06/13 01:01:02;;;;;;;6.93;2.03;;;;;;;16.28;57.86;100814.47;5087551;28;20055;-77
2021/06/13 01:03:29;;;;;;;7.80;1.67;;;;;;;15.95;58.93;100806.97;5080736;28;21064;-76
2021/06/13 01:05:56;;;;;;;6.93;2.10;;;;;;;15.91;58.99;100808.78;5042802;28;20052;-76
2021/06/13 01:08:38;;;;;;;3.78;2.03;;;;;;;15.66;59.91;100815.19;5046855;28;20496;-76
2021/06/13 01:11:13;;;;;;;6.70;2.07;;;;;;;15.30;61.73;100818.16;5075729;28;20044;-75
2021/06/13 01:14:02;;;;;;;2.90;1.60;;;;;;;15.24;62.88;100811.19;5060980;28;20388;-77
2021/06/13 01:16:44;;;;;;;4.93;1.63;;;;;;;15.70;61.37;100809.00;5068027;28;20040;-75
2021/06/13 01:19:33;;;;;;;2.40;1.75;;;;;;;15.99;60.17;100812.19;5059955;28;20068;-75
2021/06/13 01:22:31;;;;;;;2.65;1.50;;;;;;;15.95;60.25;100817.53;5063025;28;20116;-75
2021/06/13 01:25:22;;;;;;;5.00;1.63;;;;;;;15.56;62.03;100806.53;5055954;28;20517;-76
2021/06/13 01:28:22;;;;;;;6.25;1.60;;;;;;;15.78;61.57;100793.97;5078002;28;20055;-73
2021/06/13 01:30:54;;;;;;;7.25;1.73;;;;;;;15.77;62.22;100796.66;5061659;28;20495;-74
2021/06/13 01:33:22;;;;;;;4.45;1.48;;;;;;;15.40;63.15;100790.84;5065383;28;20055;-73
2021/06/13 01:35:50;;;;;;;4.50;1.80;;;;;;;15.15;64.97;100788.47;5080763;28;20067;-75
2021/06/13 01:38:18;;;;;;;2.10;1.52;;;;;;;15.59;63.93;100780.13;5080692;28;20074;-75
2021/06/13 01:40:46;;;;;;;2.55;1.48;;;;;;;15.38;64.08;100782.09;5080893;28;20135;-75
2021/06/13 01:43:16;;;;;;;3.10;2.28;;;;;;;15.31;64.15;100780.41;5080095;28;20076;-75
2021/06/13 01:45:45;;;;;;;2.85;1.67;;;;;;;15.15;64.64;100779.69;5079880;28;20040;-76
2021/06/13 01:48:13;;;;;;;2.13;1.63;;;;;;;15.49;63.67;100780.25;5061767;28;20094;-75
2021/06/13 01:50:42;;;;;;;3.75;1.88;;;;;;;15.27;63.97;100780.44;5077357;28;20048;-75
2021/06/13 01:53:13;;;;;;;6.18;1.60;;;;;;;15.41;63.23;100782.94;5062360;28;20045;-74
2021/06/13 01:55:44;;;;;;;8.68;2.00;;;;;;;15.52;62.67;100781.09;5079297;28;20055;-75
2021/06/13 01:58:14;;;;;;;4.65;1.77;;;;;;;15.27;63.16;100785.69;5065762;28;20060;-75
2021/06/13 02:00:42;;;;;;;2.25;1.65;;;;;;;15.48;63.25;100787.25;5060642;28;20046;-74
2021/06/13 02:03:10;;;;;;;3.55;2.03;;;;;;;15.97;61.32;100797.31;5064893;28;20059;-74
2021/06/13 02:05:38;;;;;;;6.15;2.00;;;;;;;16.11;61.14;100793.59;5060056;28;20044;-74
2021/06/13 02:08:06;;;;;;;2.42;1.48;;;;;;;16.22;61.22;100796.09;5061339;28;20048;-75
2021/06/13 02:10:34;;;;;;;4.80;1.92;;;;;;;16.44;60.39;100792.28;5063860;28;20052;-76
2021/06/13 02:13:01;;;;;;;4.97;1.80;;;;;;;16.20;61.03;100792.63;5050881;28;20124;-75
2021/06/13 02:15:29;;;;;;;4.10;1.52;;;;;;;16.45;60.27;100795.81;5066920;28;20048;-75
2021/06/13 02:17:57;;;;;;;1.92;1.60;;;;;;;16.27;61.27;100799.53;5025641;28;20380;-75
2021/06/13 02:20:28;;;;;;;2.80;1.55;;;;;;;16.43;60.56;100806.38;5072048;28;20463;-75
2021/06/13 02:22:57;;;;;;;2.53;1.48;;;;;;;16.41;60.59;100805.50;5062383;28;20067;-74
2021/06/13 02:25:25;;;;;;;2.58;1.60;;;;;;;16.03;61.66;100792.81;5067191;28;20063;-75
2021/06/13 02:27:55;;;;;;;5.78;2.00;;;;;;;16.00;62.54;100794.63;5042476;28;20048;-75
2021/06/13 02:30:26;;;;;;;3.95;2.10;;;;;;;16.30;61.83;100788.97;5045913;28;20044;-74
2021/06/13 02:32:56;;;;;;;2.97;2.10;;;;;;;16.37;61.78;100795.91;5065477;28;25025;-76
2021/06/13 02:35:25;;;;;;;3.90;1.90;;;;;;;16.37;61.52;100797.66;5067594;28;20062;-74
2021/06/13 02:37:53;;;;;;;5.55;1.95;;;;;;;16.21;62.05;100804.88;5070222;28;20052;-75
2021/06/13 02:40:21;;;;;;;5.78;2.40;;;;;;;16.28;62.30;100798.66;5068270;28;20049;-75
2021/06/13 02:42:47;;;;;;;5.93;2.22;;;;;;;16.06;63.20;100797.19;5040228;28;20041;-74
2021/06/13 02:45:20;;;;;;;4.95;2.35;;;;;;;16.06;63.30;100794.56;5065089;28;20523;-74
2021/06/13 02:47:48;;;;;;;3.67;2.80;;;;;;;15.84;64.13;100801.81;5047564;28;20040;-74
2021/06/13 02:50:20;;;;;;;5.15;2.42;;;;;;;16.00;63.77;100800.78;5067166;28;20106;-73
2021/06/13 02:53:15;;;;;;;6.35;2.47;;;;;;;15.93;64.60;100792.94;5033821;28;20123;-74
2021/06/13 02:55:49;;;;;;;5.25;2.30;;;;;;;16.29;63.35;100803.03;5054624;28;20048;-76
2021/06/13 02:58:21;;;;;;;4.80;2.55;;;;;;;16.20;63.68;100807.56;5044886;28;20049;-73
2021/06/13 03:00:50;;;;;;;8.40;2.70;;;;;;;16.12;63.72;100807.63;5066093;28;20048;-75
2021/06/13 03:03:21;;;;;;;7.47;3.17;;;;;;;16.01;64.46;100809.56;5083898;28;20109;-74
2021/06/13 03:05:49;;;;;;;8.77;3.30;;;;;;;15.24;66.80;100809.44;5078846;28;20082;-73
2021/06/13 03:08:18;;;;;;;6.70;3.50;;;;;;;15.55;66.03;100801.25;5084666;28;20040;-74
2021/06/13 03:10:47;;;;;;;10.18;3.67;;;;;;;15.16;68.34;100792.81;5065328;28;20214;-74
2021/06/13 03:13:17;;;;;;;11.25;3.70;;;;;;;15.26;68.26;100793.59;5049525;28;20059;-74
2021/06/13 03:15:45;;;;;;;5.13;3.10;;;;;;;15.27;68.52;100776.91;5045227;28;20059;-75
2021/06/13 03:18:13;;;;;;;8.65;3.80;;;;;;;15.38;68.51;100777.72;5086281;28;20502;-74
2021/06/13 03:20:41;;;;;;;5.90;3.30;;;;;;;15.51;68.43;100787.25;5061466;28;20076;-74
2021/06/13 03:23:08;;;;;;;8.27;3.20;;;;;;;15.72;67.61;100780.03;5087573;28;20059;-74
2021/06/13 03:25:37;;;;;;;5.40;3.00;;;;;;;15.40;68.59;100772.41;5062335;28;20053;-74
2021/06/13 03:28:05;;;;;;;8.95;3.42;;;;;;;15.51;68.58;100771.44;5088567;28;20067;-74
2021/06/13 03:30:34;;;;;;;7.28;3.17;;;;;;;15.58;68.24;100774.91;5064638;28;20060;-73
2021/06/13 03:33:04;;;;;;;5.15;3.17;;;;;;;16.09;67.16;100781.31;5067963;28;20048;-74
2021/06/13 03:35:32;;;;;;;8.73;3.17;;;;;;;15.73;67.99;100779.13;5090578;28;20049;-75
2021/06/13 03:38:00;;;;;;;7.80;3.08;;;;;;;16.08;66.77;100777.81;5058729;28;20060;-74
2021/06/13 03:40:29;;;;;;;7.82;3.28;;;;;;;16.08;67.37;100784.84;5065906;28;20097;-76
2021/06/13 03:42:56;;;;;;;12.55;3.35;;;;;;;16.27;66.24;100791.63;5066406;28;20137;-74
2021/06/13 03:45:25;;;;;;;5.95;3.40;;;;;;;15.65;68.46;100785.34;5069920;28;20056;-75
2021/06/13 03:47:54;;;;;;;5.63;2.97;;;;;;;16.25;66.49;100789.91;5083054;28;20244;-75
2021/06/13 03:50:22;;;;;;;5.50;3.40;;;;;;;16.06;66.93;100794.56;5087826;28;20044;-75
2021/06/13 03:52:49;;;;;;;4.07;2.67;;;;;;;16.19;66.34;100788.22;5082906;28;20065;-73
2021/06/13 03:55:16;;;;;;;6.82;3.08;;;;;;;15.99;66.86;100784.97;5064040;28;20036;-74
2021/06/13 03:57:47;;;;;;;6.75;3.35;;;;;;;15.97;66.99;100787.59;5046789;28;20113;-75
2021/06/13 04:00:15;;;;;;;6.15;2.80;;;;;;;16.51;65.75;100793.06;5048146;28;20045;-75
2021/06/13 04:02:45;;;;;;;5.90;3.00;;;;;;;16.49;65.48;100792.22;5079939;28;20040;-76
2021/06/13 04:05:15;;;;;;;4.28;3.03;;;;;;;16.66;65.09;100787.59;5064033;28;20475;-75
2021/06/13 04:07:42;;;;;;;5.30;3.45;;;;;;;17.01;63.99;100800.28;5082863;28;20036;-76
2021/06/13 04:10:12;;;;;;;10.45;3.05;;;;;;;17.70;62.84;100797.31;5068388;28;20042;-75
2021/06/13 04:12:40;;;;;;;6.10;3.67;;;;;;;18.75;60.05;100801.31;5061936;28;20048;-76
2021/06/13 04:15:09;;;;;;;5.60;3.03;;;;;;;19.63;57.01;100791.16;5084123;28;20540;-75
2021/06/13 04:17:38;;;;;;;6.55;2.25;;;;;;;20.55;53.48;100802.69;5075336;28;20052;-75
2021/06/13 04:20:08;;;;;;;5.38;2.17;;;;;;;21.71;50.02;100812.13;5084964;28;20060;-76
2021/06/13 04:22:39;;;;;;;7.53;2.28;;;;;;;22.44;48.17;100806.78;5077828;28;20139;-76
2021/06/13 04:25:12;;;;;;;3.85;1.95;;;;;;;22.84;46.91;100811.44;5083133;28;20048;-76
2021/06/13 04:27:40;;;;;;;3.78;1.90;;;;;;;23.81;44.18;100815.34;5075673;28;20056;-73
2021/06/13 04:30:08;;;;;;;4.10;1.50;;;;;;;24.76;41.71;100815.41;5046917;28;20098;-75
2021/06/13 04:32:35;;;;;;;5.68;1.90;;;;;;;25.47;40.12;100821.72;5080338;28;20503;-75
2021/06/13 04:35:03;;;;;;;4.60;1.77;;;;;;;24.93;40.80;100816.44;5088145;28;20055;-76
2021/06/13 04:37:30;;;;;;;3.85;1.58;;;;;;;26.09;38.88;100828.31;5058080;28;20482;-75
2021/06/13 04:39:57;;;;;;;3.58;1.88;;;;;;;26.59;37.31;100827.41;5080619;28;20051;-75
2021/06/13 04:42:24;;;;;;;4.18;1.75;;;;;;;26.92;36.46;100835.41;5062398;28;20099;-76
2021/06/13 04:44:50;;;;;;;1.90;1.60;;;;;;;27.72;34.56;100834.22;5059374;28;20099;-74
2021/06/13 04:47:17;;;;;;;2.38;1.52;;;;;;;27.51;34.68;100835.53;5058890;28;20040;-75
2021/06/13 04:49:51;;;;;;;4.55;1.50;;;;;;;28.03;33.48;100841.28;5062516;28;20093;-75
2021/06/13 04:52:19;;;;;;;2.88;1.27;;;;;;;28.83;32.90;100838.03;5044168;28;20056;-75
2021/06/13 04:54:59;;;;;;;2.00;1.27;;;;;;;29.76;30.74;100843.47;5039942;28;20048;-75
2021/06/13 04:57:55;;;;;;;4.00;1.50;;;;;;;30.55;29.26;100853.25;5042429;28;20040;-75
2021/06/13 05:00:22;;;;;;;3.20;1.30;;;;;;;31.36;28.73;100846.31;5059966;28;20486;-76
2021/06/13 05:02:50;;;;;;;9.98;1.27;;;;;;;32.18;27.62;100858.91;5074815;28;20405;-75
2021/06/13 05:05:17;;;;;;;2.50;1.38;;;;;;;32.65;26.42;100859.69;5062162;28;20047;-76
2021/06/13 05:07:44;;;;;;;1.98;1.10;;;;;;;33.24;26.24;100874.59;5061557;28;20036;-75
2021/06/13 05:10:13;;;;;;;2.65;1.20;;;;;;;33.90;24.66;100866.34;5046711;28;20060;-76
2021/06/13 05:12:50;;;;;;;6.60;1.77;;;;;;;32.31;26.20;100858.78;5061370;28;20463;-77
2021/06/13 05:15:19;;;;;;;4.18;1.60;;;;;;;31.52;26.94;100860.34;5063271;28;20105;-76
2021/06/13 05:17:46;;;;;;;5.28;1.70;;;;;;;31.05;27.93;100857.66;5078847;28;20055;-76
2021/06/13 05:20:14;;;;;;;3.10;1.70;;;;;;;29.23;30.75;100856.97;5080217;28;20043;-76
2021/06/13 05:23:00;;;;;;;3.38;1.65;;;;;;;31.89;27.43;100861.16;5056237;28;20052;-75
2021/06/13 05:25:32;;;;;;;2.45;1.30;;;;;;;32.69;26.62;100851.19;5068325;28;20044;-75
2021/06/13 05:28:00;;;;;;;4.32;1.88;;;;;;;33.25;25.74;100849.22;5077525;28;20056;-75
2021/06/13 05:30:29;;;;;;;2.60;1.50;;;;;;;34.33;24.10;100855.38;5063927;28;20043;-75
2021/06/13 05:32:56;;;;;;;3.80;1.23;;;;;;;35.03;23.54;100860.78;5059868;28;20181;-75
2021/06/13 05:35:24;;;;;;;5.78;1.40;;;;;;;35.80;22.29;100863.59;5082471;28;20036;-75
2021/06/13 05:37:51;;;;;;;3.80;1.33;;;;;;;37.09;21.07;100868.19;5080746;28;20350;-76
2021/06/13 05:40:21;;;;;;;4.75;1.52;;;;;;;36.73;21.17;100868.25;5079811;28;20519;-75
2021/06/13 05:42:48;;;;;;;3.58;1.35;;;;;;;37.01;21.08;100878.13;5080113;28;20036;-75
2021/06/13 05:45:17;;;;;;;3.25;1.50;;;;;;;35.53;22.37;100871.59;5080666;28;20056;-75
2021/06/13 05:47:44;;;;;;;5.47;1.67;;;;;;;34.70;22.67;100867.41;5059946;28;20395;-77
2021/06/13 05:50:12;;;;;;;4.80;1.80;;;;;;;31.94;25.53;100858.09;5082808;28;20048;-77
2021/06/13 05:52:40;;;;;;;3.80;1.55;;;;;;;30.97;26.69;100855.50;5075238;28;20068;-76
2021/06/13 05:55:08;;;;;;;5.60;1.90;;;;;;;30.48;27.81;100857.34;5082953;28;20102;-74
2021/06/13 05:57:35;;;;;;;4.50;1.67;;;;;;;31.12;27.29;100854.41;5080707;28;20040;-77
2021/06/13 06:00:18;;;;;;;8.98;1.80;;;;;;;32.33;25.99;100854.09;5060311;28;20052;-77
2021/06/13 06:02:46;;;;;;;3.03;1.65;;;;;;;32.55;25.49;100854.13;5057558;28;20051;-74
2021/06/13 06:05:15;;;;;;;4.97;1.85;;;;;;;33.24;24.47;100857.47;5058427;28;20101;-76
2021/06/13 06:07:41;;;;;;;3.88;2.00;;;;;;;32.15;25.50;100848.31;5087762;28;20052;-76
2021/06/13 06:10:11;;;;;;;5.57;2.25;;;;;;;31.74;25.85;100848.81;5068603;28;20096;-74
2021/06/13 06:12:38;;;;;;;18.52;13.95;;;;;;;32.39;24.95;100850.91;5063514;28;20044;-77
2021/06/13 06:15:07;;;;;;;6.05;4.10;;;;;;;32.19;25.01;100852.47;5085915;28;20483;-77
2021/06/13 06:17:37;;;;;;;5.95;2.80;;;;;;;32.41;25.25;100862.47;5078931;28;20399;-76
2021/06/13 06:20:07;;;;;;;3.92;2.08;;;;;;;32.73;24.68;100862.63;5065531;28;20383;-76
2021/06/13 06:22:34;;;;;;;9.73;2.00;;;;;;;32.04;25.68;100849.09;5081315;28;20041;-79
2021/06/13 06:25:01;;;;;;;5.25;2.33;;;;;;;31.63;26.19;100853.31;5066110;28;20435;-76
2021/06/13 06:27:28;;;;;;;3.53;1.83;;;;;;;33.08;24.42;100863.31;5013751;28;20068;-76
2021/06/13 06:29:55;;;;;;;4.07;2.25;;;;;;;33.63;23.85;100862.25;5062046;28;20094;-76
2021/06/13 06:32:22;;;;;;;4.63;1.92;;;;;;;34.47;23.01;100871.28;5087835;28;20235;-77
2021/06/13 06:34:49;;;;;;;2.40;1.80;;;;;;;34.51;22.94;100867.28;5041666;28;20399;-77
2021/06/13 06:37:16;;;;;;;6.47;1.80;;;;;;;34.82;22.55;100871.72;5065950;28;20117;-76
2021/06/13 06:39:43;;;;;;;5.47;2.08;;;;;;;34.41;22.74;100875.38;5086024;28;20437;-77
2021/06/13 06:42:10;;;;;;;5.30;2.15;;;;;;;33.86;23.36;100876.56;5067565;28;20056;-76
2021/06/13 06:44:37;;;;;;;5.40;1.77;;;;;;;32.23;25.37;100858.53;5083641;28;20079;-76
2021/06/13 06:47:04;;;;;;;5.10;2.22;;;;;;;32.56;25.35;100873.91;5067307;28;20483;-77
2021/06/13 06:49:32;;;;;;;4.43;2.13;;;;;;;32.32;25.58;100858.66;5086471;28;20503;-76
2021/06/13 06:52:00;;;;;;;5.55;2.25;;;;;;;33.47;24.01;100877.25;5045949;28;20542;-76
2021/06/13 06:54:27;;;;;;;5.15;2.15;;;;;;;33.83;23.83;100873.28;5080075;28;20040;-77
2021/06/13 06:56:54;;;;;;;4.25;2.22;;;;;;;33.27;24.48;100868.06;5065508;28;20052;-75
2021/06/13 06:59:21;;;;;;;4.15;1.60;;;;;;;34.44;23.51;100877.81;5067055;28;20056;-76
2021/06/13 07:01:48;;;;;;;5.13;2.13;;;;;;;34.01;23.56;100871.69;5087296;28;20055;-75
2021/06/13 07:04:15;;;;;;;5.72;2.92;;;;;;;33.77;23.65;100871.94;5041834;28;20044;-76
2021/06/13 07:06:42;;;;;;;6.50;3.33;;;;;;;32.94;25.12;100882.53;5074729;28;20052;-75
2021/06/13 07:09:09;;;;;;;6.82;2.63;;;;;;;33.09;25.31;100883.13;5055980;28;20123;-76
2021/06/13 07:11:36;;;;;;;6.93;3.28;;;;;;;33.46;25.01;100887.22;5045167;28;20136;-76
2021/06/13 07:14:02;;;;;;;6.25;2.60;;;;;;;34.55;23.81;100896.75;5066049;28;20055;-76
2021/06/13 07:16:30;;;;;;;7.38;2.30;;;;;;;34.99;22.92;100886.50;5089149;28;20557;-76
2021/06/13 07:18:57;;;;;;;5.57;2.40;;;;;;;35.62;22.39;100885.19;5051829;28;20097;-76
2021/06/13 07:21:23;;;;;;;7.18;2.42;;;;;;;34.77;22.56;100887.59;5067120;28;20036;-75
2021/06/13 07:23:51;;;;;;;5.70;2.65;;;;;;;34.78;23.37;100894.72;5086472;28;20040;-76
2021/06/13 07:26:18;;;;;;;4.47;2.33;;;;;;;35.25;22.45;100895.03;5064292;28;20040;-75
2021/06/13 07:28:46;;;;;;;3.35;2.00;;;;;;;35.57;22.55;100890.19;5069004;28;20376;-76
2021/06/13 07:31:13;;;;;;;5.88;2.15;;;;;;;36.00;21.97;100900.66;5067519;28;20093;-77
2021/06/13 07:33:40;;;;;;;3.92;1.70;;;;;;;36.14;21.59;100900.22;5082341;28;20080;-75
2021/06/13 07:36:08;;;;;;;6.65;2.25;;;;;;;35.69;22.73;100894.50;5075369;28;20062;-75
2021/06/13 07:38:35;;;;;;;5.18;1.70;;;;;;;36.75;21.11;100897.03;5074818;28;20046;-77
2021/06/13 07:41:02;;;;;;;2.83;1.35;;;;;;;37.68;20.11;100904.97;5066812;28;20071;-77
2021/06/13 07:43:32;;;;;;;11.38;1.75;;;;;;;36.56;21.50;100894.38;5051187;28;20067;-77
2021/06/13 07:45:59;;;;;;;1.85;1.33;;;;;;;36.73;20.92;100890.03;5052326;28;20051;-76
2021/06/13 07:48:26;;;;;;;4.07;1.40;;;;;;;36.84;21.29;100896.13;5089443;28;20052;-77
2021/06/13 07:50:53;;;;;;;6.60;2.10;;;;;;;36.13;22.12;100893.06;5085963;28;20052;-76
2021/06/13 07:53:20;;;;;;;4.30;1.83;;;;;;;35.27;23.38;100893.88;5088168;28;20080;-75
2021/06/13 07:55:47;;;;;;;2.55;1.40;;;;;;;37.97;20.48;100904.69;5083935;28;20048;-76
2021/06/13 07:58:22;;;;;;;2.72;1.55;;;;;;;39.00;18.95;100910.16;5084685;28;20082;-77
2021/06/13 08:00:50;;;;;;;3.97;1.63;;;;;;;39.49;18.44;100915.78;5068702;28;20044;-76
2021/06/13 08:03:17;;;;;;;3.45;1.50;;;;;;;41.23;16.89;100916.94;5051910;28;20056;-77
2021/06/13 08:05:44;;;;;;;4.65;1.55;;;;;;;42.17;16.54;100922.09;5067297;28;20123;-76
2021/06/13 08:08:11;;;;;;;2.83;1.48;;;;;;;44.50;14.28;100921.78;5089843;28;20060;-77
2021/06/13 08:10:39;;;;;;;5.20;1.65;;;;;;;43.85;14.54;100919.28;5083099;28;20053;-77
2021/06/13 08:13:06;;;;;;;3.50;1.40;;;;;;;43.80;14.42;100913.50;5050676;28;20571;-77
2021/06/13 08:15:36;;;;;;;4.03;1.60;;;;;;;42.04;16.19;100902.66;5050361;28;20128;-77
2021/06/13 08:18:05;;;;;;;3.08;1.50;;;;;;;40.35;17.77;100900.59;5068068;28;20056;-76
2021/06/13 08:20:34;;;;;;;2.45;1.58;;;;;;;40.32;17.65;100900.97;5068250;28;20052;-77
2021/06/13 08:23:01;;;;;;;3.38;1.50;;;;;;;40.91;16.51;100905.06;5064166;28;20051;-76
2021/06/13 08:25:28;;;;;;;4.63;1.88;;;;;;;41.64;16.59;100906.56;5084844;28;20064;-76
2021/06/13 08:27:56;;;;;;;2.67;1.40;;;;;;;42.48;15.51;100913.75;5085951;28;20076;-76
2021/06/13 08:30:24;;;;;;;4.85;1.60;;;;;;;42.17;15.71;100916.59;5084933;28;20051;-78
2021/06/13 08:32:51;;;;;;;2.80;1.58;;;;;;;40.94;16.90;100914.81;5049913;28;20410;-76
2021/06/13 08:35:18;;;;;;;2.15;1.42;;;;;;;39.86;18.26;100907.97;5083779;28;20052;-76
2021/06/13 08:37:49;;;;;;;3.90;1.50;;;;;;;39.08;18.98;100904.75;5068501;28;20110;-76
2021/06/13 08:40:17;;;;;;;2.97;1.70;;;;;;;36.75;21.77;100891.59;5087160;28;20093;-77
2021/06/13 08:42:44;;;;;;;2.53;1.80;;;;;;;34.05;25.36;100884.84;5066092;28;20068;-76
2021/06/13 08:45:14;;;;;;;4.88;1.75;;;;;;;32.91;26.71;100881.91;5075217;28;20049;-76
2021/06/13 08:47:43;;;;;;;7.80;2.05;;;;;;;32.60;27.57;100875.38;5086370;28;20411;-76
2021/06/13 08:50:10;;;;;;;7.00;2.33;;;;;;;31.47;29.31;100872.47;5084499;28;20048;-76
2021/06/13 08:52:38;;;;;;;3.20;1.75;;;;;;;30.41;31.64;100866.81;5049589;28;20048;-76
2021/06/13 08:55:07;;;;;;;6.45;1.83;;;;;;;30.26;32.21;100866.06;5085390;28;20067;-77
2021/06/13 08:57:36;;;;;;;2.88;1.85;;;;;;;30.97;30.99;100878.94;5083687;28;20079;-77
2021/06/13 09:00:09;;;;;;;2.33;1.42;;;;;;;31.32;30.07;100869.09;5045024;28;20461;-76
2021/06/13 09:02:36;;;;;;;2.53;1.60;;;;;;;31.49;30.11;100871.41;5074382;28;20040;-75
2021/06/13 09:05:06;;;;;;;2.65;1.75;;;;;;;30.80;30.83;100868.50;5062224;28;20037;-77
2021/06/13 09:07:34;;;;;;;3.30;2.00;;;;;;;31.23;30.59;100871.63;5085473;28;20117;-77
2021/06/13 09:10:10;;;;;;;4.57;1.63;;;;;;;32.31;29.15;100858.78;5063527;28;20057;-76
2021/06/13 09:12:37;;;;;;;4.95;2.00;;;;;;;30.93;30.86;100869.34;5077880;28;20374;-77
2021/06/13 09:15:06;;;;;;;4.45;1.90;;;;;;;31.02;30.85;100864.16;5065905;28;20465;-76
2021/06/13 09:17:42;;;;;;;2.28;1.38;;;;;;;31.53;30.50;100858.53;5082258;28;20491;-76
2021/06/13 09:20:17;;;;;;;3.03;1.88;;;;;;;31.59;30.14;100852.69;5075170;28;20414;-76
2021/06/13 09:23:06;;;;;;;2.25;1.50;;;;;;;32.24;29.03;100858.38;5082760;28;20066;-77
2021/06/13 09:25:37;;;;;;;5.35;1.50;;;;;;;32.41;28.72;100857.06;5080880;28;20040;-77
2021/06/13 09:28:14;;;;;;;2.45;1.40;;;;;;;33.93;26.34;100861.50;5047093;28;20049;-76
2021/06/13 09:30:47;;;;;;;2.28;1.30;;;;;;;32.84;28.10;100857.19;5068164;28;20048;-77
2021/06/13 09:33:20;;;;;;;4.25;1.35;;;;;;;33.99;26.71;100865.56;5034883;28;20131;-77
2021/06/13 09:35:49;;;;;;;4.72;2.17;;;;;;;33.96;26.64;100858.53;5080647;28;20449;-76
2021/06/13 09:38:25;;;;;;;2.33;1.45;;;;;;;33.96;26.59;100863.09;5062393;28;20068;-77
2021/06/13 09:40:57;;;;;;;4.13;1.15;;;;;;;34.35;26.29;100865.06;5019325;28;20500;-78
2021/06/13 09:43:25;;;;;;;;;;;;;;;34.96;25.15;100871.34;5079037;28;20403;-76
2021/06/13 09:45:59;;;;;;;2.78;1.25;;;;;;;32.87;27.87;100862.34;5055204;28;20386;-76
2021/06/13 09:48:27;;;;;;;2.55;1.52;;;;;;;33.32;27.78;100860.44;5079828;28;20574;-77
2021/06/13 09:51:00;;;;;;;2.58;1.25;;;;;;;33.22;27.80;100856.75;4978474;28;20121;-76
2021/06/13 09:53:29;;;;;;;2.47;0.60;;;;;;;33.30;27.26;100862.41;5080617;28;20127;-77
2021/06/13 09:56:17;;;;;;;2.58;0.90;;;;;;;33.04;28.03;100861.84;5060063;28;20576;-77
2021/06/13 09:58:56;;;;;;;3.50;0.80;;;;;;;32.04;28.55;100859.06;5049392;28;20044;-76
2021/06/13 10:01:30;;;;;;;2.25;0.85;;;;;;;31.62;29.95;100852.44;5041499;28;20061;-76
2021/06/13 10:03:59;;;;;;;2.33;1.00;;;;;;;31.24;30.76;100849.06;5063620;28;20058;-75
2021/06/13 10:06:30;;;;;;;2.75;0.95;;;;;;;31.36;30.80;100853.56;5062837;28;20069;-76
2021/06/13 10:08:58;;;;;;;2.00;1.00;;;;;;;32.04;29.79;100846.41;5059921;28;20143;-76
2021/06/13 10:11:26;;;;;;;1.95;0.77;;;;;;;32.73;28.86;100846.38;5064351;28;20570;-76
2021/06/13 10:13:58;;;;;;;2.97;0.98;;;;;;;33.10;27.79;100844.19;5058669;28;22097;-78
2021/06/13 10:16:47;;;;;;;2.75;0.85;;;;;;;32.39;29.27;100840.09;5075238;28;20455;-76
2021/06/13 10:19:27;;;;;;;1.83;0.60;;;;;;;32.61;28.97;100844.66;5080624;28;20344;-76
2021/06/13 10:21:57;;;;;;;2.88;0.70;;;;;;;32.55;29.14;100834.31;5042071;28;20052;-77
2021/06/13 10:24:26;;;;;;;1.00;0.60;;;;;;;32.25;29.16;100834.91;5060061;28;20128;-77
2021/06/13 10:26:56;;;;;;;2.58;0.77;;;;;;;32.37;28.83;100836.66;5078975;28;22147;-75
2021/06/13 10:29:25;;;;;;;1.52;0.68;;;;;;;32.68;28.26;100840.47;5041716;28;20509;-77
2021/06/13 10:31:57;;;;;;;0.70;0.65;;;;;;;31.68;30.13;100830.38;5036505;28;20056;-76
2021/06/13 10:34:25;;;;;;;;;;;;;;;32.14;29.74;100837.59;5028462;28;20049;-76
2021/06/13 10:36:54;;;;;;;2.15;0.80;;;;;;;30.81;31.41;100832.44;5025391;28;19937;-76
2021/06/13 10:39:26;;;;;;;3.25;0.75;;;;;;;30.52;32.32;100838.13;5040795;28;20053;-75
2021/06/13 10:41:54;;;;;;;2.85;1.00;;;;;;;30.65;31.52;100832.69;5024046;28;20045;-76
2021/06/13 10:44:26;;;;;;;4.88;0.70;;;;;;;30.49;32.70;100829.41;5011050;28;20057;-76
2021/06/13 10:47:09;;;;;;;5.55;0.93;;;;;;;31.02;31.23;100830.91;5017256;28;20191;-77
2021/06/13 10:49:39;;;;;;;6.10;1.13;;;;;;;31.34;31.04;100826.66;5023830;28;20045;-76
2021/06/13 10:52:14;;;;;;;1.30;0.70;;;;;;;31.86;30.58;100834.34;5021619;28;20041;-78
2021/06/13 10:54:53;;;;;;;3.80;0.80;;;;;;;32.04;29.83;100832.03;5042135;28;20071;-77
2021/06/13 10:57:20;;;;;;;2.53;0.80;;;;;;;32.04;29.41;100829.31;5042724;28;20045;-76
2021/06/13 10:59:50;;;;;;;1.98;0.90;;;;;;;32.14;29.28;100821.38;5044751;28;20067;-76
2021/06/13 11:02:23;;;;;;;2.75;0.85;;;;;;;31.40;30.77;100828.03;5084952;28;20130;-75
2021/06/13 11:04:58;;;;;;;2.22;0.90;;;;;;;31.23;30.64;100828.41;5064890;28;20048;-77
2021/06/13 11:10:11;;;;;;;2.28;0.63;;;;;;;31.45;30.19;100820.44;5088556;28;20058;-76
2021/06/13 11:12:47;;;;;;;6.88;0.70;;;;;;;30.84;30.86;100824.16;5045320;28;20161;-75
2021/06/13 11:15:41;;;;;;;2.25;0.90;;;;;;;31.31;30.68;100821.50;5057847;28;20561;-76
2021/06/13 11:18:14;;;;;;;2.58;0.80;;;;;;;31.14;30.20;100814.66;5071173;28;20044;-75
2021/06/13 11:20:54;;;;;;;4.90;0.90;;;;;;;31.59;30.03;100810.31;5085817;28;20035;-75
2021/06/13 11:23:22;;;;;;;2.15;1.02;;;;;;;31.73;29.83;100813.78;5067571;28;20135;-76
2021/06/13 11:25:59;;;;;;;0.98;0.47;;;;;;;32.05;29.23;100809.41;5080486;28;20037;-76
2021/06/13 11:28:41;;;;;;;1.20;0.50;;;;;;;31.98;29.28;100813.59;5025466;28;20045;-77
2021/06/13 11:31:22;;;;;;;1.23;0.60;;;;;;;31.89;29.00;100814.34;5028549;28;20049;-77
